Albany, New York
Traffic Map
Current Weather Conditions
Albany, New York
Overcast
Overcast

Feels Like: -4°
Wind Chill: -4° Ceiling: 7000
Heat Index: Visibility: 10mi
Dew Point: -7° Wind: 7mph
Humidity: 61% Direction: ° ()
Pressure: 30.16in Gusts: 0mph
Raw Report DataKALB 070751Z VRB06KT 10SM OVC070 00/M07 A3016 RMK AO2 SLP214 BINOVC T00001067
Traffic Incident Summary
Active as of:
Severity:
Category:
InformationThere was an issue retrieving the traffic information for this location. Please try a different location or try again shortly.
Advertisements
Track Severe Weather on mobile